createdAt,value
2019-05-07T00:01:18.918Z,3.77
2019-05-07T00:03:48.876Z,3.23
2019-05-07T00:06:18.869Z,3.13
2019-05-07T00:08:48.837Z,3.33
2019-05-07T00:11:18.841Z,3.57
2019-05-07T00:13:48.809Z,3.17
2019-05-07T00:16:18.806Z,2.97
2019-05-07T00:18:48.839Z,3.40
2019-05-07T00:21:18.838Z,3.37
2019-05-07T00:23:48.785Z,3.73
2019-05-07T00:26:18.757Z,3.87
2019-05-07T00:28:48.717Z,4.40
2019-05-07T00:31:18.711Z,3.50
2019-05-07T00:33:48.663Z,3.57
2019-05-07T00:36:33.793Z,3.70
2019-05-07T00:39:14.838Z,3.73
2019-05-07T00:41:52.195Z,3.90
2019-05-07T00:44:22.693Z,3.87
2019-05-07T00:46:52.707Z,4.03
2019-05-07T00:49:24.984Z,4.20
2019-05-07T00:51:54.978Z,4.60
2019-05-07T00:54:24.971Z,5.07
2019-05-07T00:56:54.952Z,4.60
2019-05-07T00:59:24.924Z,4.40
2019-05-07T01:01:54.928Z,5.33
2019-05-07T01:04:24.909Z,4.40
2019-05-07T01:06:54.910Z,5.17
2019-05-07T01:09:24.896Z,4.80
2019-05-07T01:11:54.970Z,5.73
2019-05-07T01:14:24.970Z,5.33
2019-05-07T01:16:54.964Z,5.97
2019-05-07T01:19:24.970Z,5.13
2019-05-07T01:21:54.942Z,5.03
2019-05-07T01:24:24.930Z,5.47
2019-05-07T01:26:54.898Z,5.73
2019-05-07T01:29:24.909Z,6.00
2019-05-07T01:32:03.216Z,6.10
2019-05-07T01:34:42.955Z,4.70
2019-05-07T01:37:12.981Z,5.93
2019-05-07T01:39:42.986Z,5.63
2019-05-07T01:42:12.981Z,5.67
2019-05-07T01:44:42.988Z,5.67
2019-05-07T01:47:13.226Z,5.57
2019-05-07T01:49:43.276Z,5.23
2019-05-07T01:52:13.539Z,5.63
2019-05-07T01:54:43.605Z,5.37
2019-05-07T01:57:13.550Z,4.60
2019-05-07T01:59:43.535Z,6.00
2019-05-07T02:02:22.769Z,4.83
2019-05-07T02:05:17.136Z,4.93
2019-05-07T02:07:53.298Z,5.03
2019-05-07T02:10:34.006Z,4.57
2019-05-07T02:13:04.048Z,4.80
2019-05-07T02:15:34.025Z,4.53
2019-05-07T02:18:04.034Z,4.47
2019-05-07T02:20:34.014Z,5.00
2019-05-07T02:23:04.072Z,5.03
2019-05-07T02:25:34.036Z,5.20
2019-05-07T02:28:04.416Z,4.70
2019-05-07T02:30:35.187Z,5.60
2019-05-07T02:33:05.592Z,4.47
2019-05-07T02:35:35.574Z,4.87
2019-05-07T02:38:24.582Z,4.73
2019-05-07T02:41:03.187Z,5.23
2019-05-07T02:43:33.938Z,5.50
2019-05-07T02:46:26.437Z,4.00
2019-05-07T02:48:54.203Z,4.10
2019-05-07T02:51:29.792Z,3.90
2019-05-07T02:54:08.662Z,3.87
2019-05-07T02:56:38.709Z,3.43
2019-05-07T02:59:08.668Z,4.10
2019-05-07T03:01:38.801Z,3.93
2019-05-07T03:04:08.789Z,3.83
2019-05-07T03:06:38.861Z,4.30
2019-05-07T03:09:08.824Z,4.43
2019-05-07T03:11:38.823Z,4.07
2019-05-07T03:14:08.910Z,4.60
2019-05-07T03:16:44.222Z,4.80
2019-05-07T03:19:13.324Z,3.90
2019-05-07T03:22:03.746Z,4.50
2019-05-07T03:24:55.598Z,3.93
2019-05-07T03:27:25.642Z,4.47
2019-05-07T03:30:16.083Z,4.67
2019-05-07T03:32:55.617Z,4.20
2019-05-07T03:35:55.636Z,4.03
2019-05-07T03:38:22.894Z,3.60
2019-05-07T03:40:53.332Z,3.00
2019-05-07T03:43:25.024Z,4.37
2019-05-07T03:46:14.422Z,4.10
2019-05-07T03:48:46.206Z,4.37
2019-05-07T03:51:16.204Z,3.83
2019-05-07T03:53:46.174Z,4.03
2019-05-07T03:56:16.177Z,3.90
2019-05-07T03:58:46.211Z,4.23
2019-05-07T04:01:16.174Z,3.83
2019-05-07T04:03:46.175Z,5.27
2019-05-07T04:06:16.126Z,4.40
2019-05-07T04:08:46.132Z,4.80
2019-05-07T04:11:16.110Z,4.60
2019-05-07T04:13:46.090Z,3.80
2019-05-07T04:16:16.067Z,3.90
2019-05-07T04:18:46.048Z,3.93
2019-05-07T04:21:16.013Z,3.70
2019-05-07T04:23:46.007Z,3.17
2019-05-07T04:26:28.059Z,3.97
2019-05-07T04:29:06.877Z,3.73
2019-05-07T04:31:43.038Z,4.03
2019-05-07T04:34:17.181Z,3.37
2019-05-07T04:36:49.108Z,4.10
2019-05-07T04:39:19.113Z,4.10
2019-05-07T04:41:49.110Z,3.17
2019-05-07T04:44:19.096Z,3.87
2019-05-07T04:46:49.071Z,3.47
2019-05-07T04:49:19.067Z,3.80
2019-05-07T04:52:03.946Z,3.33
2019-05-07T04:54:33.108Z,3.43
2019-05-07T04:57:03.783Z,4.00
2019-05-07T04:59:33.950Z,3.30
2019-05-07T05:02:13.883Z,3.33
2019-05-07T05:04:44.127Z,3.37
2019-05-07T05:07:14.168Z,3.03
2019-05-07T05:09:44.188Z,3.17
2019-05-07T05:12:14.178Z,3.00
2019-05-07T05:14:44.176Z,3.00
2019-05-07T05:17:14.161Z,4.27
2019-05-07T05:19:44.169Z,4.27
2019-05-07T05:22:36.267Z,5.80
2019-05-07T05:25:13.510Z,6.30
2019-05-07T05:27:43.493Z,5.87
2019-05-07T05:30:17.234Z,4.63
2019-05-07T05:32:47.211Z,3.50
2019-05-07T05:35:22.190Z,3.60
2019-05-07T05:37:52.308Z,3.10
2019-05-07T05:40:22.754Z,2.73
2019-05-07T05:42:58.720Z,3.70
2019-05-07T05:45:36.551Z,3.23
2019-05-07T05:48:08.526Z,2.87
2019-05-07T05:50:48.891Z,2.90
2019-05-07T05:53:33.741Z,4.07
2019-05-07T05:56:07.626Z,2.40
2019-05-07T05:58:59.397Z,2.80
2019-05-07T06:01:48.312Z,2.17
2019-05-07T06:04:25.950Z,2.40
2019-05-07T06:07:17.878Z,2.03
2019-05-07T06:10:19.222Z,2.97
2019-05-07T06:12:53.862Z,2.30
2019-05-07T06:15:42.817Z,2.77
2019-05-07T06:18:32.697Z,2.60
2019-05-07T06:21:14.192Z,2.27
2019-05-07T06:23:52.831Z,2.87
2019-05-07T06:26:22.857Z,2.10
2019-05-07T06:28:52.879Z,1.80
2019-05-07T06:31:22.818Z,2.17
2019-05-07T06:33:52.824Z,1.90
2019-05-07T06:36:22.811Z,2.60
2019-05-07T06:39:02.209Z,2.80
2019-05-07T06:41:50.117Z,2.40
2019-05-07T06:44:22.589Z,2.10
2019-05-07T06:46:52.849Z,2.47
2019-05-07T06:49:22.933Z,2.77
2019-05-07T06:51:52.975Z,2.23
2019-05-07T06:54:22.977Z,2.20
2019-05-07T06:56:52.945Z,2.10
2019-05-07T06:59:34.583Z,2.47
2019-05-07T07:02:22.530Z,1.50
2019-05-07T07:04:56.698Z,1.80
2019-05-07T07:07:37.745Z,1.80
2019-05-07T07:10:29.591Z,1.93
2019-05-07T07:12:59.579Z,2.23
2019-05-07T07:15:31.929Z,1.20
2019-05-07T07:18:03.214Z,1.50
2019-05-07T07:20:32.993Z,1.30
2019-05-07T07:23:03.038Z,1.30
2019-05-07T07:25:33.039Z,1.50
2019-05-07T07:28:03.043Z,1.33
2019-05-07T07:30:57.973Z,1.10
2019-05-07T07:33:31.980Z,1.50
2019-05-07T07:36:02.576Z,1.10
2019-05-07T07:38:33.029Z,1.33
2019-05-07T07:41:22.273Z,1.20
2019-05-07T07:43:52.658Z,1.30
2019-05-07T07:46:22.614Z,0.93
2019-05-07T07:49:06.666Z,1.07
2019-05-07T07:51:37.744Z,1.40
2019-05-07T07:53:55.974Z,0.97
2019-05-07T07:56:53.895Z,1.37
2019-05-07T07:59:32.896Z,1.10
2019-05-07T08:02:23.158Z,1.00
2019-05-07T08:04:53.107Z,1.50
2019-05-07T08:07:23.124Z,1.20
2019-05-07T08:09:53.119Z,0.87
2019-05-07T08:12:23.121Z,0.77
2019-05-07T08:14:53.093Z,1.20
2019-05-07T08:17:23.115Z,1.00
2019-05-07T08:19:53.175Z,1.83
2019-05-07T08:22:23.198Z,1.40
2019-05-07T08:24:53.199Z,0.77
2019-05-07T08:27:23.197Z,1.30
2019-05-07T08:29:53.193Z,1.40
2019-05-07T08:32:52.920Z,1.30
2019-05-07T08:35:27.269Z,1.33
2019-05-07T08:37:57.295Z,0.83
2019-05-07T08:40:27.302Z,1.13
2019-05-07T08:42:58.489Z,0.90
2019-05-07T08:45:46.233Z,2.27
2019-05-07T08:48:21.712Z,1.47
2019-05-07T08:50:52.542Z,0.90
2019-05-07T08:53:22.747Z,0.77
2019-05-07T08:55:52.737Z,1.37
2019-05-07T08:58:23.133Z,1.20
2019-05-07T09:00:53.127Z,1.10
2019-05-07T09:03:42.901Z,1.20
2019-05-07T09:06:13.642Z,1.50
2019-05-07T09:08:43.798Z,1.07
2019-05-07T09:11:13.858Z,1.20
2019-05-07T09:13:44.039Z,0.87
2019-05-07T09:16:14.029Z,1.27
2019-05-07T09:18:44.057Z,0.97
2019-05-07T09:21:14.099Z,0.70
2019-05-07T09:23:44.198Z,1.10
2019-05-07T09:26:16.076Z,1.00
2019-05-07T09:28:53.181Z,1.20
2019-05-07T09:31:37.221Z,1.03
2019-05-07T09:34:07.272Z,1.30
2019-05-07T09:36:44.063Z,1.07
2019-05-07T09:39:14.078Z,0.97
2019-05-07T09:41:44.143Z,1.93
2019-05-07T09:44:14.171Z,0.97
2019-05-07T09:46:46.657Z,1.13
2019-05-07T09:49:15.895Z,1.00
2019-05-07T09:51:45.882Z,1.00
2019-05-07T09:54:15.957Z,1.00
2019-05-07T09:56:45.932Z,1.13
2019-05-07T09:59:15.957Z,0.80
2019-05-07T10:01:45.953Z,1.40
2019-05-07T10:04:15.974Z,1.03
2019-05-07T10:06:45.997Z,1.03
2019-05-07T10:09:16.007Z,1.10
2019-05-07T10:11:55.628Z,1.30
2019-05-07T10:14:25.650Z,0.90
2019-05-07T10:17:11.986Z,1.13
2019-05-07T10:19:42.053Z,0.93
2019-05-07T10:22:12.638Z,0.90
2019-05-07T10:24:42.751Z,1.20
2019-05-07T10:27:12.838Z,1.00
2019-05-07T10:29:42.893Z,0.93
2019-05-07T10:32:12.996Z,1.30
2019-05-07T10:34:43.032Z,1.10
2019-05-07T10:37:13.023Z,1.23
2019-05-07T10:39:43.157Z,0.80
2019-05-07T10:42:13.110Z,0.80
2019-05-07T10:45:04.851Z,0.90
2019-05-07T10:47:58.606Z,0.80
2019-05-07T10:50:36.359Z,1.00
2019-05-07T10:53:02.056Z,1.10
2019-05-07T10:55:32.898Z,0.70
2019-05-07T10:58:03.157Z,0.83
2019-05-07T11:00:33.437Z,0.80
2019-05-07T11:03:03.442Z,0.93
2019-05-07T11:05:33.494Z,1.00
2019-05-07T11:08:03.475Z,1.10
2019-05-07T11:10:33.510Z,1.50
2019-05-07T11:13:03.480Z,1.07
2019-05-07T11:15:33.781Z,0.83
2019-05-07T11:18:25.018Z,1.07
2019-05-07T11:20:55.098Z,0.70
2019-05-07T11:23:25.081Z,0.73
2019-05-07T11:25:55.118Z,0.63
2019-05-07T11:28:25.085Z,0.70
2019-05-07T11:30:55.093Z,1.00
2019-05-07T11:33:25.069Z,0.70
2019-05-07T11:35:55.081Z,1.00
2019-05-07T11:38:25.176Z,0.90
2019-05-07T11:40:55.189Z,0.77
2019-05-07T11:43:42.644Z,0.90
2019-05-07T11:46:16.572Z,0.97
2019-05-07T11:48:54.625Z,0.93
2019-05-07T11:51:36.257Z,0.80
2019-05-07T11:54:09.256Z,0.63
2019-05-07T11:56:42.915Z,1.10
2019-05-07T12:00:32.160Z,0.90
2019-05-07T12:11:36.480Z,1.10
2019-05-07T12:14:06.785Z,0.80
2019-05-07T12:16:36.827Z,1.47
2019-05-07T12:19:06.934Z,1.17
2019-05-07T12:21:36.978Z,1.00
2019-05-07T12:24:07.038Z,0.97
2019-05-07T12:26:38.696Z,0.87
2019-05-07T12:29:08.674Z,0.73
2019-05-07T12:31:56.520Z,1.00
2019-05-07T12:34:31.848Z,0.97
2019-05-07T12:37:01.924Z,0.77
2019-05-07T12:39:32.032Z,0.90
2019-05-07T12:42:02.870Z,0.73
2019-05-07T12:44:32.866Z,1.03
2019-05-07T12:47:02.984Z,1.10
2019-05-07T12:49:33.008Z,0.70
2019-05-07T12:52:25.254Z,0.87
2019-05-07T12:55:03.235Z,1.00
2019-05-07T12:57:33.323Z,1.20
2019-05-07T13:00:22.932Z,0.90
2019-05-07T13:03:12.604Z,1.10
2019-05-07T13:05:42.283Z,0.90
2019-05-07T13:08:12.400Z,1.17
2019-05-07T13:10:42.928Z,0.97
2019-05-07T13:13:13.026Z,0.83
2019-05-07T13:15:43.438Z,0.90
2019-05-07T13:18:13.526Z,0.93
2019-05-07T13:20:43.513Z,0.80
2019-05-07T13:23:13.526Z,0.83
2019-05-07T13:25:43.560Z,0.90
2019-05-07T13:28:13.588Z,1.00
2019-05-07T13:30:43.968Z,0.80
2019-05-07T13:33:14.734Z,0.90
2019-05-07T13:35:44.731Z,1.30
2019-05-07T13:38:49.048Z,0.90
2019-05-07T13:41:56.139Z,1.10
2019-05-07T13:44:45.408Z,0.90
2019-05-07T13:47:43.333Z,0.80
2019-05-07T13:50:16.659Z,0.97
2019-05-07T13:52:46.693Z,1.03
2019-05-07T13:55:16.679Z,1.00
2019-05-07T13:57:46.678Z,1.63
2019-05-07T14:00:32.450Z,1.53
2019-05-07T14:03:03.245Z,1.10
2019-05-07T14:05:37.411Z,0.80
2019-05-07T14:08:19.527Z,1.10
2019-05-07T14:11:22.344Z,1.27
2019-05-07T14:13:52.327Z,0.83
2019-05-07T14:20:07.338Z,1.30
2019-05-07T14:22:37.316Z,0.90
2019-05-07T14:25:07.819Z,1.13
2019-05-07T14:27:37.844Z,1.00
2019-05-07T14:30:08.614Z,0.90
2019-05-07T14:33:01.797Z,1.27
2019-05-07T14:35:57.952Z,1.20
2019-05-07T14:38:42.521Z,1.27
2019-05-07T14:41:13.012Z,0.83
2019-05-07T14:44:01.105Z,0.80
2019-05-07T14:46:44.635Z,1.10
2019-05-07T14:49:02.922Z,1.00
2019-05-07T14:51:32.888Z,0.93
2019-05-07T14:54:02.918Z,1.00
2019-05-07T14:56:33.124Z,1.13
2019-05-07T14:59:03.157Z,0.80
2019-05-07T15:01:33.969Z,1.40
2019-05-07T15:04:04.236Z,0.93
2019-05-07T15:06:34.623Z,1.10
2019-05-07T15:09:06.685Z,1.10
2019-05-07T15:11:37.006Z,1.30
2019-05-07T15:14:07.046Z,1.17
2019-05-07T15:16:37.343Z,0.80
2019-05-07T15:19:07.447Z,1.20
2019-05-07T15:21:37.439Z,0.93
2019-05-07T15:24:07.466Z,1.00
2019-05-07T15:26:37.462Z,1.07
2019-05-07T15:29:13.349Z,1.20
2019-05-07T15:32:03.195Z,1.17
2019-05-07T15:34:32.922Z,1.93
2019-05-07T15:37:02.883Z,1.43
2019-05-07T15:39:33.058Z,1.20
2019-05-07T15:42:03.081Z,1.30
2019-05-07T15:44:33.102Z,1.07
2019-05-07T15:47:07.272Z,0.83
2019-05-07T15:49:37.376Z,1.20
2019-05-07T15:56:07.728Z,1.10
2019-05-07T15:58:37.824Z,1.00
2019-05-07T16:01:07.896Z,1.00
2019-05-07T16:03:42.856Z,1.50
2019-05-07T16:06:12.944Z,1.10
2019-05-07T16:08:52.013Z,1.00
2019-05-07T16:11:23.244Z,1.10
2019-05-07T16:14:14.552Z,1.30
2019-05-07T16:16:46.682Z,1.07
2019-05-07T16:19:27.203Z,1.30
2019-05-07T16:21:59.585Z,1.00
2019-05-07T16:24:31.794Z,1.00
2019-05-07T16:27:04.922Z,1.17
2019-05-07T16:29:35.646Z,1.10
2019-05-07T16:32:04.817Z,1.10
2019-05-07T16:34:34.902Z,1.00
2019-05-07T16:37:07.487Z,1.47
2019-05-07T16:39:36.660Z,1.17
2019-05-07T16:42:06.723Z,1.00
2019-05-07T16:44:36.710Z,1.40
2019-05-07T16:47:06.752Z,1.30
2019-05-07T16:49:36.752Z,1.20
2019-05-07T16:52:06.773Z,1.10
2019-05-07T16:54:36.752Z,0.83
2019-05-07T16:57:42.344Z,0.97
2019-05-07T17:00:17.664Z,0.87
2019-05-07T17:02:48.914Z,1.10
2019-05-07T17:05:18.954Z,1.03
2019-05-07T17:08:14.203Z,1.07
2019-05-07T17:10:44.692Z,1.20
2019-05-07T17:13:14.678Z,1.20
2019-05-07T17:18:41.600Z,0.90
2019-05-07T17:21:12.359Z,1.20
2019-05-07T17:23:44.639Z,1.10
2019-05-07T17:26:14.540Z,1.10
2019-05-07T17:28:44.524Z,0.90
2019-05-07T17:31:14.557Z,1.03
2019-05-07T17:33:44.536Z,0.90
2019-05-07T17:36:14.580Z,1.13
2019-05-07T17:38:44.596Z,1.00
2019-05-07T17:41:22.196Z,1.07
2019-05-07T17:43:46.653Z,1.43
2019-05-07T17:46:16.697Z,1.00
2019-05-07T17:48:46.707Z,1.10
2019-05-07T17:51:35.680Z,0.90
2019-05-07T17:54:43.187Z,1.20
2019-05-07T17:57:15.795Z,1.13
2019-05-07T18:03:33.593Z,0.83
2019-05-07T18:06:03.805Z,1.40
2019-05-07T18:08:33.843Z,1.03
2019-05-07T18:11:17.362Z,1.77
2019-05-07T18:13:35.626Z,1.30
2019-05-07T18:16:12.253Z,1.17
2019-05-07T18:18:43.211Z,1.47
2019-05-07T18:21:13.361Z,1.23
2019-05-07T18:23:43.482Z,1.63
2019-05-07T18:26:26.904Z,0.90
2019-05-07T18:28:45.285Z,0.93
2019-05-07T18:31:15.903Z,0.90
2019-05-07T18:33:53.184Z,0.80
2019-05-07T18:36:23.198Z,0.97
2019-05-07T18:38:53.281Z,1.43
2019-05-07T18:41:23.403Z,1.60
2019-05-07T18:43:54.672Z,1.63
2019-05-07T18:46:24.924Z,1.60
2019-05-07T18:48:54.970Z,1.00
2019-05-07T18:51:25.052Z,1.00
2019-05-07T18:53:55.113Z,0.90
2019-05-07T18:56:25.119Z,1.20
2019-05-07T18:58:55.169Z,1.07
2019-05-07T19:01:27.142Z,1.23
2019-05-07T19:03:57.873Z,1.00
2019-05-07T19:06:27.895Z,1.00
2019-05-07T19:08:57.908Z,1.33
2019-05-07T19:11:27.933Z,1.20
2019-05-07T19:13:57.983Z,0.80
2019-05-07T19:16:27.970Z,0.80
2019-05-07T19:18:58.014Z,1.00
2019-05-07T19:21:28.028Z,1.00
2019-05-07T19:23:58.098Z,0.97
2019-05-07T19:26:28.127Z,1.07
2019-05-07T19:28:58.189Z,1.17
2019-05-07T19:31:28.188Z,1.10
2019-05-07T19:33:58.259Z,1.27
2019-05-07T19:36:28.384Z,1.40
2019-05-07T19:38:58.418Z,1.60
2019-05-07T19:41:28.485Z,1.60
2019-05-07T19:43:58.531Z,1.40
2019-05-07T19:46:28.589Z,1.40
2019-05-07T19:48:58.653Z,1.60
2019-05-07T19:51:28.663Z,1.57
2019-05-07T19:53:58.697Z,1.30
2019-05-07T19:56:28.715Z,1.17
2019-05-07T19:58:58.826Z,1.17
2019-05-07T20:01:45.766Z,1.40
2019-05-07T20:04:15.841Z,1.17
2019-05-07T20:06:45.874Z,1.20
2019-05-07T20:09:17.833Z,1.00
2019-05-07T20:11:49.009Z,1.00
2019-05-07T20:14:19.019Z,0.70
2019-05-07T20:16:49.025Z,1.00
2019-05-07T20:19:19.069Z,1.60
2019-05-07T20:21:49.082Z,0.80
2019-05-07T20:24:19.105Z,1.07
2019-05-07T20:26:49.091Z,1.10
2019-05-07T20:29:19.158Z,1.07
2019-05-07T20:31:49.203Z,0.90
2019-05-07T20:34:19.208Z,1.30
2019-05-07T20:36:49.226Z,1.20
2019-05-07T20:39:19.255Z,1.40
2019-05-07T20:41:49.318Z,2.10
2019-05-07T20:44:19.387Z,1.70
2019-05-07T20:46:49.578Z,1.30
2019-05-07T20:49:19.614Z,1.30
2019-05-07T20:51:49.643Z,1.10
2019-05-07T20:54:36.611Z,1.10
2019-05-07T20:57:22.314Z,0.70
2019-05-07T20:59:51.709Z,0.90
2019-05-07T21:02:22.713Z,0.93
2019-05-07T21:04:52.950Z,0.97
2019-05-07T21:07:22.956Z,1.30
2019-05-07T21:09:53.139Z,1.33
2019-05-07T21:12:23.158Z,1.40
2019-05-07T21:14:53.252Z,1.20
2019-05-07T21:17:23.250Z,1.20
2019-05-07T21:19:53.280Z,1.23
2019-05-07T21:22:23.302Z,1.50
2019-05-07T21:24:53.512Z,1.40
2019-05-07T21:27:23.637Z,1.67
2019-05-07T21:29:53.630Z,1.30
2019-05-07T21:32:23.653Z,1.60
2019-05-07T21:34:53.653Z,1.20
2019-05-07T21:37:23.774Z,1.70
2019-05-07T21:39:54.122Z,2.00
2019-05-07T21:42:24.210Z,1.60
2019-05-07T21:44:54.285Z,1.43
2019-05-07T21:47:24.308Z,1.37
2019-05-07T21:49:55.257Z,1.10
2019-05-07T21:52:27.326Z,1.10
2019-05-07T21:55:10.121Z,1.23
2019-05-07T21:57:59.089Z,1.90
2019-05-07T22:01:03.416Z,1.50
2019-05-07T22:03:34.974Z,1.47
2019-05-07T22:06:05.119Z,1.47
2019-05-07T22:08:35.103Z,1.40
2019-05-07T22:11:05.169Z,2.00
2019-05-07T22:13:35.151Z,1.53
2019-05-07T22:16:05.157Z,2.17
2019-05-07T22:18:35.137Z,1.83
2019-05-07T22:21:05.144Z,1.70
2019-05-07T22:23:35.191Z,1.63
2019-05-07T22:26:19.219Z,1.80
2019-05-07T22:28:37.626Z,1.70
2019-05-07T22:31:34.469Z,1.53
2019-05-07T22:34:22.256Z,1.40
2019-05-07T22:36:55.020Z,1.50
2019-05-07T22:39:23.757Z,1.40
2019-05-07T22:41:53.750Z,1.70
2019-05-07T22:44:26.228Z,1.60
2019-05-07T22:46:57.706Z,1.90
2019-05-07T22:49:27.680Z,1.40
2019-05-07T22:51:57.726Z,1.30
2019-05-07T22:54:27.704Z,1.40
2019-05-07T22:57:03.177Z,1.50
2019-05-07T22:59:33.160Z,1.37
2019-05-07T23:02:04.179Z,1.30
2019-05-07T23:04:34.151Z,1.27
2019-05-07T23:07:04.142Z,1.53
2019-05-07T23:09:34.114Z,1.67
2019-05-07T23:12:04.108Z,1.57
2019-05-07T23:14:34.081Z,1.63
2019-05-07T23:17:04.091Z,1.50
2019-05-07T23:19:34.088Z,1.30
2019-05-07T23:22:04.061Z,1.60
2019-05-07T23:24:34.064Z,1.47
2019-05-07T23:27:04.040Z,1.13
2019-05-07T23:29:34.042Z,1.20
2019-05-07T23:32:04.031Z,1.53
2019-05-07T23:34:34.046Z,1.27
2019-05-07T23:37:04.016Z,1.40
2019-05-07T23:39:35.986Z,1.40
2019-05-07T23:42:28.006Z,1.83
2019-05-07T23:44:58.008Z,1.60
2019-05-07T23:47:27.976Z,1.50
2019-05-07T23:49:57.982Z,1.50
2019-05-07T23:52:27.947Z,1.47
2019-05-07T23:54:57.979Z,1.37
2019-05-07T23:57:27.942Z,1.73
2019-05-07T23:59:57.924Z,1.60
